createdAt,value
2023-02-20T00:00:05.731Z,100509.16
2023-02-20T00:02:32.248Z,100509.88
2023-02-20T00:04:58.701Z,100510.94
2023-02-20T00:07:25.123Z,100508.13
2023-02-20T00:09:51.530Z,100499.75
2023-02-20T00:12:17.959Z,100507.75
2023-02-20T00:14:44.786Z,100502.31
2023-02-20T00:17:11.195Z,100508.78
2023-02-20T00:19:37.650Z,100498.41
2023-02-20T00:22:04.024Z,100502.25
2023-02-20T00:24:30.456Z,100505.69
2023-02-20T00:26:56.909Z,100512.63
2023-02-20T00:29:24.459Z,100524.91
2023-02-20T00:31:56.155Z,100521.59
2023-02-20T00:34:24.094Z,100520.22
2023-02-20T00:36:50.606Z,100521.13
2023-02-20T00:39:17.160Z,100524.44
2023-02-20T00:41:43.615Z,100517.53
2023-02-20T00:44:10.055Z,100515.13
2023-02-20T00:46:36.722Z,100518.56
2023-02-20T00:49:03.720Z,100508.63
2023-02-20T00:51:31.405Z,100502.63
2023-02-20T00:53:57.798Z,100499.69
2023-02-20T00:56:24.202Z,100507.84
2023-02-20T00:58:50.626Z,100504.28
2023-02-20T01:01:17.136Z,100494.09
2023-02-20T01:03:43.744Z,100491.66
2023-02-20T01:06:10.483Z,100502.75
2023-02-20T01:08:37.022Z,100510.91
2023-02-20T01:11:03.531Z,100503.00
2023-02-20T01:13:29.922Z,100499.66
2023-02-20T01:15:56.552Z,100505.13
2023-02-20T01:18:22.980Z,100504.78
2023-02-20T01:20:49.378Z,100501.81
2023-02-20T01:23:15.812Z,100494.22
2023-02-20T01:25:42.366Z,100501.88
2023-02-20T01:28:08.748Z,100506.44
2023-02-20T01:30:35.163Z,100511.81
2023-02-20T01:33:01.736Z,100501.59
2023-02-20T01:35:32.047Z,100504.38
2023-02-20T01:37:59.646Z,100500.41
2023-02-20T01:40:27.723Z,100501.53
2023-02-20T01:42:54.322Z,100494.53
2023-02-20T01:45:23.825Z,100497.59
2023-02-20T01:47:52.312Z,100490.19
2023-02-20T01:50:21.699Z,100495.66
2023-02-20T01:52:51.371Z,100496.09
2023-02-20T01:55:21.782Z,100486.31
2023-02-20T01:58:02.101Z,100494.59
2023-02-20T02:00:28.795Z,100478.91
2023-02-20T02:02:58.833Z,100484.88
2023-02-20T02:05:25.509Z,100476.06
2023-02-20T02:07:52.218Z,100466.25
2023-02-20T02:10:22.757Z,100476.59
2023-02-20T02:12:51.765Z,100478.97
2023-02-20T02:15:20.238Z,100472.06
2023-02-20T02:18:08.470Z,100469.13
2023-02-20T02:21:11.883Z,100468.97
2023-02-20T02:23:41.263Z,100469.19
2023-02-20T02:26:38.844Z,100459.66
2023-02-20T02:29:28.152Z,100467.59
2023-02-20T02:32:22.215Z,100471.03
2023-02-20T02:35:03.831Z,100473.84
2023-02-20T02:37:32.312Z,100482.22
2023-02-20T02:40:28.573Z,100476.72
2023-02-20T02:43:08.323Z,100478.28
2023-02-20T02:45:40.757Z,100477.72
2023-02-20T02:48:46.936Z,100481.84
2023-02-20T02:51:19.369Z,100471.97
2023-02-20T02:54:08.843Z,100473.03
2023-02-20T02:56:41.085Z,100474.53
2023-02-20T02:59:09.845Z,100469.16
2023-02-20T03:01:41.719Z,100471.28
2023-02-20T03:04:09.681Z,100465.91
2023-02-20T03:06:39.267Z,100471.34
2023-02-20T03:09:10.046Z,100475.94
2023-02-20T03:11:36.714Z,100478.56
2023-02-20T03:14:25.483Z,100476.41
2023-02-20T03:17:26.480Z,100481.97
2023-02-20T03:19:55.347Z,100475.06
2023-02-20T03:22:38.853Z,100467.00
2023-02-20T03:25:12.649Z,100468.44
2023-02-20T03:27:54.503Z,100462.84
2023-02-20T03:30:36.419Z,100464.06
2023-02-20T03:33:27.736Z,100461.97
2023-02-20T03:36:14.783Z,100454.88
2023-02-20T03:39:01.006Z,100453.06
2023-02-20T03:41:47.575Z,100452.59
2023-02-20T03:44:15.432Z,100454.56
2023-02-20T03:46:44.217Z,100456.88
2023-02-20T03:49:13.347Z,100459.06
2023-02-20T03:51:40.668Z,100460.41
2023-02-20T03:54:07.813Z,100460.03
2023-02-20T03:56:41.567Z,100455.13
2023-02-20T03:59:26.669Z,100445.28
2023-02-20T04:02:00.769Z,100458.25
2023-02-20T04:04:32.439Z,100457.56
2023-02-20T04:06:59.746Z,100459.78
2023-02-20T04:09:29.420Z,100455.16
2023-02-20T04:12:07.875Z,100458.94
2023-02-20T04:14:34.968Z,100466.41
2023-02-20T04:17:05.057Z,100465.56
2023-02-20T04:19:31.514Z,100453.88
2023-02-20T04:22:01.911Z,100465.56
2023-02-20T04:24:35.012Z,100465.91
2023-02-20T04:27:01.533Z,100473.03
2023-02-20T04:29:28.360Z,100471.03
2023-02-20T04:31:54.779Z,100468.50
2023-02-20T04:34:21.222Z,100466.47
2023-02-20T04:36:50.876Z,100468.22
2023-02-20T04:39:17.283Z,100478.16
2023-02-20T04:41:43.690Z,100474.28
2023-02-20T04:44:28.697Z,100474.88
2023-02-20T04:46:55.131Z,100476.03
2023-02-20T04:49:21.542Z,100471.88
2023-02-20T04:51:47.960Z,100471.59
2023-02-20T04:54:14.421Z,100467.88
2023-02-20T04:56:40.839Z,100472.06
2023-02-20T04:59:07.419Z,100470.09
2023-02-20T05:01:34.079Z,100458.97
2023-02-20T05:04:00.608Z,100456.06
2023-02-20T05:06:27.053Z,100455.38
2023-02-20T05:08:53.495Z,100453.13
2023-02-20T05:11:19.907Z,100448.88
2023-02-20T05:13:46.324Z,100454.34
2023-02-20T05:16:14.265Z,100447.97
2023-02-20T05:18:40.934Z,100446.34
2023-02-20T05:21:25.866Z,100447.50
2023-02-20T05:23:52.291Z,100440.31
2023-02-20T05:26:20.913Z,100434.81
2023-02-20T05:28:47.588Z,100436.47
2023-02-20T05:31:17.286Z,100434.69
2023-02-20T05:33:44.102Z,100438.44
2023-02-20T05:36:10.802Z,100432.91
2023-02-20T05:38:37.434Z,100432.31
2023-02-20T05:41:04.181Z,100441.00
2023-02-20T05:43:30.627Z,100442.50
2023-02-20T05:45:57.065Z,100440.97
2023-02-20T05:48:23.470Z,100435.34
2023-02-20T05:50:50.604Z,100434.72
2023-02-20T05:53:17.262Z,100430.09
2023-02-20T05:55:43.782Z,100434.59
2023-02-20T05:58:10.188Z,100435.03
2023-02-20T06:00:36.597Z,100434.59
2023-02-20T06:03:06.612Z,100440.88
2023-02-20T06:05:33.066Z,100438.22
2023-02-20T06:07:59.454Z,100447.88
2023-02-20T06:10:25.839Z,100450.28
2023-02-20T06:12:52.262Z,100435.50
2023-02-20T06:15:18.639Z,100445.03
2023-02-20T06:17:45.066Z,100438.97
2023-02-20T06:20:11.617Z,100442.66
2023-02-20T06:22:38.049Z,100446.41
2023-02-20T06:25:04.721Z,100442.38
2023-02-20T06:27:31.473Z,100449.56
2023-02-20T06:29:57.871Z,100446.41
2023-02-20T06:32:24.308Z,100452.38
2023-02-20T06:34:50.804Z,100450.00
2023-02-20T06:37:17.699Z,100444.78
2023-02-20T06:39:46.635Z,100447.31
2023-02-20T06:42:13.073Z,100447.28
2023-02-20T06:44:39.739Z,100446.84
2023-02-20T06:47:08.975Z,100451.78
2023-02-20T06:49:39.073Z,100452.38
2023-02-20T06:52:06.253Z,100449.41
2023-02-20T06:54:33.835Z,100454.47
2023-02-20T06:57:00.894Z,100455.94
2023-02-20T06:59:27.331Z,100458.63
2023-02-20T07:01:54.038Z,100456.09
2023-02-20T07:04:28.809Z,100462.50
2023-02-20T07:06:55.603Z,100459.53
2023-02-20T07:09:22.191Z,100456.41
2023-02-20T07:11:51.633Z,100454.47
2023-02-20T07:14:18.199Z,100452.66
2023-02-20T07:16:44.655Z,100463.09
2023-02-20T07:19:11.129Z,100461.31
2023-02-20T07:21:37.591Z,100463.84
2023-02-20T07:24:04.355Z,100463.56
2023-02-20T07:26:31.000Z,100470.72
2023-02-20T07:29:01.167Z,100464.31
2023-02-20T07:31:28.441Z,100472.22
2023-02-20T07:33:55.020Z,100473.53
2023-02-20T07:36:21.427Z,100473.25
2023-02-20T07:38:58.866Z,100475.63
2023-02-20T07:41:26.565Z,100472.78
2023-02-20T07:43:52.976Z,100475.03
2023-02-20T07:46:20.565Z,100474.72
2023-02-20T07:48:47.341Z,100476.50
2023-02-20T07:51:14.358Z,100469.63
2023-02-20T07:53:43.691Z,100475.75
2023-02-20T07:56:10.120Z,100474.41
2023-02-20T07:58:36.629Z,100473.47
2023-02-20T08:01:03.108Z,100465.69
2023-02-20T08:03:29.524Z,100472.28
2023-02-20T08:05:55.951Z,100464.22
2023-02-20T08:08:24.405Z,100473.13
2023-02-20T08:10:57.166Z,100467.44
2023-02-20T08:13:29.912Z,100471.28
2023-02-20T08:15:56.366Z,100476.97
2023-02-20T08:18:24.025Z,100476.03
2023-02-20T08:20:52.109Z,100476.44
2023-02-20T08:23:20.942Z,100476.22
2023-02-20T08:25:50.317Z,100471.13
2023-02-20T08:28:16.850Z,100468.03
2023-02-20T08:30:43.473Z,100462.31
2023-02-20T08:33:09.912Z,100462.94
2023-02-20T08:35:36.710Z,100461.03
2023-02-20T08:38:07.960Z,100462.66
2023-02-20T08:40:35.416Z,100467.84
2023-02-20T08:43:01.999Z,100455.09
2023-02-20T08:45:28.676Z,100458.22
2023-02-20T08:48:01.681Z,100455.22
2023-02-20T08:50:28.153Z,100456.56
2023-02-20T08:52:54.538Z,100453.41
2023-02-20T08:55:21.341Z,100453.59
2023-02-20T08:57:47.773Z,100439.00
2023-02-20T09:00:15.547Z,100443.34
2023-02-20T09:02:42.626Z,100441.78
2023-02-20T09:05:09.838Z,100441.50
2023-02-20T09:07:36.268Z,100438.13
2023-02-20T09:10:02.896Z,100438.47
2023-02-20T09:12:30.807Z,100434.63
2023-02-20T09:14:57.272Z,100444.44
2023-02-20T09:17:23.676Z,100443.94
2023-02-20T09:19:50.171Z,100441.84
2023-02-20T09:22:16.641Z,100445.69
2023-02-20T09:24:43.121Z,100433.44
2023-02-20T09:27:09.987Z,100440.28
2023-02-20T09:29:40.868Z,100430.44
2023-02-20T09:32:07.737Z,100431.59
2023-02-20T09:34:34.464Z,100435.13
2023-02-20T09:37:00.861Z,100429.41
2023-02-20T09:39:27.314Z,100423.72
2023-02-20T09:42:03.357Z,100428.69
2023-02-20T09:44:36.516Z,100422.03
2023-02-20T09:47:15.642Z,100413.81
2023-02-20T09:49:42.124Z,100413.13
2023-02-20T09:52:13.286Z,100410.28
2023-02-20T09:54:45.332Z,100421.72
2023-02-20T09:57:21.568Z,100416.06
2023-02-20T09:59:51.298Z,100411.88
2023-02-20T10:02:21.427Z,100407.34
2023-02-20T10:05:00.952Z,100390.16
2023-02-20T10:07:27.830Z,100391.72
2023-02-20T10:09:54.959Z,100391.34
2023-02-20T10:13:03.380Z,100382.69
2023-02-20T10:15:50.100Z,100382.22
2023-02-20T10:18:46.143Z,100377.88
2023-02-20T10:21:30.523Z,100369.88
2023-02-20T10:24:23.125Z,100368.38
2023-02-20T10:26:55.083Z,100364.56
2023-02-20T10:29:27.595Z,100370.03
2023-02-20T10:32:01.445Z,100370.56
2023-02-20T10:34:31.853Z,100366.94
2023-02-20T10:37:19.179Z,100368.88
2023-02-20T10:39:53.334Z,100364.56
2023-02-20T10:42:47.041Z,100366.75
2023-02-20T10:45:28.591Z,100361.38
2023-02-20T10:48:03.247Z,100363.28
2023-02-20T10:50:59.257Z,100360.38
2023-02-20T10:53:34.197Z,100370.94
2023-02-20T10:56:08.049Z,100367.50
2023-02-20T10:58:53.389Z,100366.34
2023-02-20T11:01:23.030Z,100383.22
2023-02-20T11:04:12.267Z,100364.16
2023-02-20T11:06:47.334Z,100365.00
2023-02-20T11:09:13.891Z,100354.72
2023-02-20T11:11:45.750Z,100358.03
2023-02-20T11:14:15.364Z,100346.97
2023-02-20T11:17:01.988Z,100349.44
2023-02-20T11:19:32.829Z,100347.34
2023-02-20T11:21:59.343Z,100345.31
2023-02-20T11:24:36.820Z,100344.16
2023-02-20T11:27:07.594Z,100333.78
2023-02-20T11:29:41.277Z,100333.41
2023-02-20T11:32:28.061Z,100330.47
2023-02-20T11:35:19.627Z,100331.72
2023-02-20T11:37:54.870Z,100335.56
2023-02-20T11:40:31.554Z,100327.81
2023-02-20T11:43:11.630Z,100318.47
2023-02-20T11:45:38.219Z,100311.19
2023-02-20T11:48:16.870Z,100315.41
2023-02-20T11:50:44.190Z,100321.91
2023-02-20T11:53:28.183Z,100314.75
2023-02-20T11:56:13.021Z,100313.06
2023-02-20T11:58:40.510Z,100307.47
2023-02-20T12:01:07.562Z,100305.78
2023-02-20T12:03:35.524Z,100308.38
2023-02-20T12:06:39.156Z,100293.81
2023-02-20T12:09:06.990Z,100293.53
2023-02-20T12:11:33.418Z,100289.00
2023-02-20T12:14:00.928Z,100279.69
2023-02-20T12:16:35.463Z,100279.88
2023-02-20T12:19:13.747Z,100278.09
2023-02-20T12:21:45.902Z,100276.84
2023-02-20T12:24:18.087Z,100269.91
2023-02-20T12:26:55.087Z,100264.59
2023-02-20T12:29:49.494Z,100256.00
2023-02-20T12:32:25.835Z,100246.47
2023-02-20T12:34:59.664Z,100241.03
2023-02-20T12:37:50.938Z,100235.09
2023-02-20T12:40:24.761Z,100228.16
2023-02-20T12:43:07.951Z,100222.81
2023-02-20T12:45:44.453Z,100226.34
2023-02-20T12:48:26.085Z,100221.09
2023-02-20T12:51:31.354Z,100216.91
2023-02-20T12:54:00.901Z,100212.81
2023-02-20T12:56:39.608Z,100203.84
2023-02-20T12:59:36.988Z,100196.88
2023-02-20T13:02:18.741Z,100198.19
2023-02-20T13:04:48.306Z,100185.63
2023-02-20T13:07:18.900Z,100185.94
2023-02-20T13:10:08.214Z,100183.66
2023-02-20T13:12:34.655Z,100177.06
2023-02-20T13:15:04.612Z,100171.28
2023-02-20T13:17:37.038Z,100178.28
2023-02-20T13:20:21.091Z,100162.25
2023-02-20T13:23:05.862Z,100165.97
2023-02-20T13:25:42.204Z,100150.25
2023-02-20T13:28:20.817Z,100146.44
2023-02-20T13:31:22.902Z,100149.22
2023-02-20T13:33:51.661Z,100135.63
2023-02-20T13:36:42.278Z,100132.00
2023-02-20T13:39:21.337Z,100127.72
2023-02-20T13:41:54.031Z,100124.06
2023-02-20T13:44:35.790Z,100121.38
2023-02-20T13:47:32.556Z,100117.84
2023-02-20T13:50:00.636Z,100122.75
2023-02-20T13:52:35.033Z,100122.06
2023-02-20T13:55:10.559Z,100116.31
2023-02-20T13:57:47.436Z,100101.94
2023-02-20T14:00:28.373Z,100111.97
2023-02-20T14:02:55.421Z,100103.66
2023-02-20T14:05:29.382Z,100095.69
2023-02-20T14:07:56.348Z,100089.25
2023-02-20T14:10:25.861Z,100101.22
2023-02-20T14:13:16.392Z,100093.16
2023-02-20T14:15:50.266Z,100089.84
2023-02-20T14:18:28.188Z,100077.16
2023-02-20T14:21:19.060Z,100072.16
2023-02-20T14:23:47.303Z,100073.72
2023-02-20T14:26:24.361Z,100072.00
2023-02-20T14:28:53.997Z,100064.56
2023-02-20T14:31:25.699Z,100059.09
2023-02-20T14:33:58.295Z,100053.84
2023-02-20T14:36:52.578Z,100051.94
2023-02-20T14:39:40.722Z,100057.63
2023-02-20T14:42:15.259Z,100052.31
2023-02-20T14:44:41.818Z,100044.44
2023-02-20T14:47:16.668Z,100050.31
2023-02-20T14:49:43.532Z,100049.75
2023-02-20T14:52:09.834Z,100046.41
2023-02-20T14:54:41.177Z,100051.38
2023-02-20T14:57:10.385Z,100043.25
2023-02-20T14:59:39.790Z,100033.50
2023-02-20T15:02:06.151Z,100040.31
2023-02-20T15:04:32.607Z,100031.75
2023-02-20T15:07:06.366Z,100035.19
2023-02-20T15:09:44.412Z,100033.38
2023-02-20T15:12:31.306Z,100023.50
2023-02-20T15:15:03.846Z,100023.13
2023-02-20T15:17:32.076Z,100024.56
2023-02-20T15:19:58.901Z,100018.28
2023-02-20T15:22:32.517Z,100015.25
2023-02-20T15:25:29.050Z,100012.25
2023-02-20T15:28:24.297Z,100014.03
2023-02-20T15:31:02.896Z,100009.44
2023-02-20T15:33:30.635Z,100003.03
2023-02-20T15:35:58.851Z,100010.66
2023-02-20T15:38:30.854Z,100002.00
2023-02-20T15:40:58.473Z,100004.41
2023-02-20T15:43:52.112Z,100000.84
2023-02-20T15:46:12.619Z,99996.28
2023-02-20T15:48:39.323Z,99984.94
2023-02-20T15:51:06.219Z,99991.69
2023-02-20T15:53:33.242Z,99985.19
2023-02-20T15:56:01.828Z,99990.09
2023-02-20T15:58:38.164Z,99988.22
2023-02-20T16:01:06.671Z,99995.84
2023-02-20T16:03:41.890Z,99988.69
2023-02-20T16:06:12.154Z,99996.91
2023-02-20T16:08:38.853Z,99989.41
2023-02-20T16:11:05.542Z,99977.22
2023-02-20T16:13:35.739Z,99983.94
2023-02-20T16:16:24.676Z,99981.94
2023-02-20T16:18:54.576Z,99978.50
2023-02-20T16:21:22.069Z,99980.13
2023-02-20T16:23:50.108Z,99986.59
2023-02-20T16:26:17.850Z,99980.50
2023-02-20T16:28:45.564Z,99980.50
2023-02-20T16:31:12.737Z,99977.13
2023-02-20T16:33:39.308Z,99969.59
2023-02-20T16:36:08.883Z,99979.16
2023-02-20T16:38:37.492Z,99978.09
2023-02-20T16:41:04.308Z,99979.53
2023-02-20T16:43:30.849Z,99975.84
2023-02-20T16:45:57.263Z,99967.94
2023-02-20T16:48:23.709Z,99982.19
2023-02-20T16:50:53.477Z,99986.28
2023-02-20T16:53:20.518Z,99980.00
2023-02-20T16:55:47.328Z,99975.25
2023-02-20T16:58:14.141Z,99979.69
2023-02-20T17:00:56.289Z,99974.53
2023-02-20T17:03:24.134Z,99960.97
2023-02-20T17:05:58.015Z,99969.72
2023-02-20T17:08:24.422Z,99970.13
2023-02-20T17:10:50.896Z,99958.78
2023-02-20T17:13:17.369Z,99961.72
2023-02-20T17:15:44.678Z,99967.31
2023-02-20T17:18:11.200Z,99959.44
2023-02-20T17:20:38.605Z,99960.63
2023-02-20T17:23:05.605Z,99961.69
2023-02-20T17:25:33.013Z,99967.19
2023-02-20T17:27:59.501Z,99963.16
2023-02-20T17:30:26.284Z,99961.38
2023-02-20T17:32:53.049Z,99965.44
2023-02-20T17:35:19.582Z,99966.06
2023-02-20T17:37:46.037Z,99967.84
2023-02-20T17:40:12.926Z,99967.41
2023-02-20T17:42:39.401Z,99970.44
2023-02-20T17:45:06.139Z,99977.00
2023-02-20T17:47:33.332Z,99974.50
2023-02-20T17:50:02.985Z,99974.59
2023-02-20T17:52:29.604Z,99984.97
2023-02-20T17:54:56.065Z,99983.34
2023-02-20T17:57:22.607Z,99979.22
2023-02-20T17:59:49.653Z,99982.75
2023-02-20T18:02:16.969Z,99984.97
2023-02-20T18:04:43.660Z,99987.97
2023-02-20T18:07:10.746Z,99986.72
2023-02-20T18:09:37.552Z,99985.47
2023-02-20T18:12:04.548Z,99981.81
2023-02-20T18:14:31.045Z,99987.72
2023-02-20T18:16:58.519Z,99990.19
2023-02-20T18:19:24.949Z,99982.47
2023-02-20T18:21:52.750Z,99978.81
2023-02-20T18:24:24.355Z,99985.34
2023-02-20T18:26:51.970Z,99981.09
2023-02-20T18:29:18.405Z,99982.47
2023-02-20T18:31:44.904Z,99985.25
2023-02-20T18:34:11.474Z,99983.50
2023-02-20T18:36:37.948Z,99979.78
2023-02-20T18:39:07.462Z,99980.97
2023-02-20T18:41:34.643Z,99969.16
2023-02-20T18:44:01.165Z,99980.78
2023-02-20T18:46:30.589Z,99975.78
2023-02-20T18:48:58.786Z,99977.25
2023-02-20T18:51:33.745Z,99981.38
2023-02-20T18:54:00.481Z,99982.16
2023-02-20T18:56:26.958Z,99976.84
2023-02-20T18:58:54.407Z,99976.44
2023-02-20T19:01:21.368Z,99983.50
2023-02-20T19:03:48.910Z,99979.63
2023-02-20T19:06:29.479Z,99972.88
2023-02-20T19:08:55.913Z,99973.16
2023-02-20T19:11:22.736Z,99974.72
2023-02-20T19:13:49.180Z,99972.66
2023-02-20T19:16:16.108Z,99973.53
2023-02-20T19:18:50.414Z,99972.03
2023-02-20T19:21:17.976Z,99972.31
2023-02-20T19:23:45.620Z,99968.53
2023-02-20T19:26:12.335Z,99972.75
2023-02-20T19:28:42.008Z,99969.88
2023-02-20T19:31:09.540Z,99979.94
2023-02-20T19:33:36.228Z,99973.91
2023-02-20T19:36:02.993Z,99967.88
2023-02-20T19:38:29.423Z,99971.16
2023-02-20T19:40:55.868Z,99966.38
2023-02-20T19:43:22.382Z,99964.78
2023-02-20T19:45:48.932Z,99962.00
2023-02-20T19:48:15.765Z,99960.88
2023-02-20T19:50:42.165Z,99958.03
2023-02-20T19:53:08.593Z,99955.34
2023-02-20T19:55:35.109Z,99953.72
2023-02-20T19:58:02.663Z,99950.94
2023-02-20T20:00:29.674Z,99949.84
2023-02-20T20:02:58.176Z,99950.50
2023-02-20T20:05:25.379Z,99956.72
2023-02-20T20:07:52.189Z,99955.28
2023-02-20T20:10:20.601Z,99963.66
2023-02-20T20:12:47.025Z,99959.88
2023-02-20T20:15:18.528Z,99960.28
2023-02-20T20:17:50.257Z,99960.31
2023-02-20T20:20:18.023Z,99963.63
2023-02-20T20:22:45.328Z,99954.09
2023-02-20T20:25:13.329Z,99954.88
2023-02-20T20:27:40.596Z,99963.66
2023-02-20T20:30:08.599Z,99969.63
2023-02-20T20:32:35.195Z,99970.94
2023-02-20T20:35:01.948Z,99966.94
2023-02-20T20:37:28.611Z,99972.03
2023-02-20T20:39:57.272Z,99984.03
2023-02-20T20:42:25.472Z,99976.34
2023-02-20T20:44:53.080Z,99977.50
2023-02-20T20:47:20.376Z,99983.34
2023-02-20T20:49:46.945Z,99992.44
2023-02-20T20:52:13.407Z,99991.09
2023-02-20T20:54:39.821Z,99978.81
2023-02-20T20:57:06.250Z,99988.63
2023-02-20T20:59:32.668Z,99992.63
2023-02-20T21:01:59.101Z,99990.16
2023-02-20T21:04:27.333Z,99984.78
2023-02-20T21:06:53.989Z,99987.53
2023-02-20T21:09:20.488Z,99980.59
2023-02-20T21:11:46.987Z,99977.72
2023-02-20T21:14:13.482Z,99973.25
2023-02-20T21:16:39.938Z,99976.09
2023-02-20T21:19:06.525Z,99973.53
2023-02-20T21:21:33.040Z,99967.47
2023-02-20T21:23:59.535Z,99968.00
2023-02-20T21:26:25.987Z,99962.13
2023-02-20T21:28:55.171Z,99962.00
2023-02-20T21:31:21.926Z,99953.69
2023-02-20T21:33:52.759Z,99958.31
2023-02-20T21:36:19.817Z,99954.03
2023-02-20T21:38:46.331Z,99955.59
2023-02-20T21:41:32.967Z,99958.91
2023-02-20T21:44:18.234Z,99953.94
2023-02-20T21:46:44.687Z,99951.44
2023-02-20T21:49:11.170Z,99951.53
2023-02-20T21:51:37.599Z,99947.00
2023-02-20T21:54:04.152Z,99944.50
2023-02-20T21:56:30.556Z,99939.38
2023-02-20T21:59:05.736Z,99938.88
2023-02-20T22:01:36.081Z,99943.31
2023-02-20T22:04:03.724Z,99942.63
2023-02-20T22:06:30.211Z,99939.03
2023-02-20T22:09:15.742Z,99938.22
2023-02-20T22:12:00.792Z,99945.63
2023-02-20T22:14:46.266Z,99940.59
2023-02-20T22:17:31.366Z,99936.91
2023-02-20T22:20:16.308Z,99940.41
2023-02-20T22:23:01.484Z,99940.13
2023-02-20T22:25:46.563Z,99951.22
2023-02-20T22:28:32.317Z,99944.38
2023-02-20T22:31:19.468Z,99945.22
2023-02-20T22:34:04.986Z,99944.94
2023-02-20T22:36:50.256Z,99938.69
2023-02-20T22:39:35.211Z,99947.56
2023-02-20T22:42:29.637Z,99945.78
2023-02-20T22:45:19.178Z,99946.41
2023-02-20T22:48:04.204Z,99947.16
2023-02-20T22:50:49.145Z,99939.28
2023-02-20T22:53:33.914Z,99943.75
2023-02-20T22:56:19.049Z,99934.84
2023-02-20T22:59:04.040Z,99942.09
2023-02-20T23:01:49.238Z,99932.56
2023-02-20T23:04:34.334Z,99942.13
2023-02-20T23:07:19.373Z,99938.56
2023-02-20T23:10:04.252Z,99930.91
2023-02-20T23:12:48.978Z,99939.69
2023-02-20T23:15:34.384Z,99936.75
2023-02-20T23:18:19.145Z,99937.56
2023-02-20T23:21:04.208Z,99937.31
2023-02-20T23:23:48.819Z,99936.78
2023-02-20T23:26:33.539Z,99939.59
2023-02-20T23:29:18.635Z,99937.06
2023-02-20T23:32:03.656Z,99933.50
2023-02-20T23:34:49.372Z,99944.03
2023-02-20T23:37:34.307Z,99941.50
2023-02-20T23:40:30.706Z,99939.84
2023-02-20T23:43:19.628Z,99935.53
2023-02-20T23:46:04.854Z,99947.72
2023-02-20T23:48:50.046Z,99953.56
2023-02-20T23:51:34.956Z,99945.44
2023-02-20T23:54:20.075Z,99944.06
2023-02-20T23:57:05.371Z,99939.56
2023-02-20T23:59:50.239Z,99939.31
